sensor_id;sensor_type;location;lat;lon;timestamp;temperature;humidity
5901;DHT22;2976;49.764;9.796;2022-11-20T00:02:02;0.20;99.90
5901;DHT22;2976;49.764;9.796;2022-11-20T00:04:27;0.30;99.90
5901;DHT22;2976;49.764;9.796;2022-11-20T00:06:53;0.30;99.90
5901;DHT22;2976;49.764;9.796;2022-11-20T00:09:18;0.30;99.90
5901;DHT22;2976;49.764;9.796;2022-11-20T00:11:44;0.40;99.90
5901;DHT22;2976;49.764;9.796;2022-11-20T00:14:09;0.40;99.90
5901;DHT22;2976;49.764;9.796;2022-11-20T00:16:35;0.40;99.90
5901;DHT22;2976;49.764;9.796;2022-11-20T00:19:01;0.50;99.90
5901;DHT22;2976;49.764;9.796;2022-11-20T00:21:28;0.50;99.90
5901;DHT22;2976;49.764;9.796;2022-11-20T00:23:55;0.50;99.90
5901;DHT22;2976;49.764;9.796;2022-11-20T00:26:23;0.40;99.90
5901;DHT22;2976;49.764;9.796;2022-11-20T00:28:51;0.40;99.90
5901;DHT22;2976;49.764;9.796;2022-11-20T00:31:16;0.30;99.90
5901;DHT22;2976;49.764;9.796;2022-11-20T00:33:43;0.30;99.90
5901;DHT22;2976;49.764;9.796;2022-11-20T00:36:14;0.30;99.90
5901;DHT22;2976;49.764;9.796;2022-11-20T00:38:40;0.30;99.90
5901;DHT22;2976;49.764;9.796;2022-11-20T00:41:08;0.20;99.90
5901;DHT22;2976;49.764;9.796;2022-11-20T00:43:34;0.20;99.90
5901;DHT22;2976;49.764;9.796;2022-11-20T00:46:02;0.30;99.90
5901;DHT22;2976;49.764;9.796;2022-11-20T00:48:28;0.20;99.90
5901;DHT22;2976;49.764;9.796;2022-11-20T00:50:54;0.30;99.90
5901;DHT22;2976;49.764;9.796;2022-11-20T00:53:21;0.20;99.90
5901;DHT22;2976;49.764;9.796;2022-11-20T00:56:00;0.20;99.90
5901;DHT22;2976;49.764;9.796;2022-11-20T00:58:30;0.30;99.90
5901;DHT22;2976;49.764;9.796;2022-11-20T01:01:03;0.30;99.90
5901;DHT22;2976;49.764;9.796;2022-11-20T01:03:34;0.40;99.90
5901;DHT22;2976;49.764;9.796;2022-11-20T01:06:05;0.30;99.90
5901;DHT22;2976;49.764;9.796;2022-11-20T01:08:32;0.30;99.90
5901;DHT22;2976;49.764;9.796;2022-11-20T01:11:03;0.30;99.90
5901;DHT22;2976;49.764;9.796;2022-11-20T01:13:29;0.20;99.90
5901;DHT22;2976;49.764;9.796;2022-11-20T01:16:08;0.20;99.90
5901;DHT22;2976;49.764;9.796;2022-11-20T01:18:35;0.20;99.90
5901;DHT22;2976;49.764;9.796;2022-11-20T01:21:03;0.20;99.90
5901;DHT22;2976;49.764;9.796;2022-11-20T01:23:31;0.20;99.90
5901;DHT22;2976;49.764;9.796;2022-11-20T01:26:00;0.20;99.90
5901;DHT22;2976;49.764;9.796;2022-11-20T01:28:26;0.20;99.90
5901;DHT22;2976;49.764;9.796;2022-11-20T01:30:53;0.20;99.90
5901;DHT22;2976;49.764;9.796;2022-11-20T01:33:18;0.20;99.90
5901;DHT22;2976;49.764;9.796;2022-11-20T01:35:44;0.20;99.90
5901;DHT22;2976;49.764;9.796;2022-11-20T01:38:09;0.20;99.90
5901;DHT22;2976;49.764;9.796;2022-11-20T01:40:35;0.30;99.90
5901;DHT22;2976;49.764;9.796;2022-11-20T01:43:17;0.20;99.90
5901;DHT22;2976;49.764;9.796;2022-11-20T01:51:32;0.30;99.90
5901;DHT22;2976;49.764;9.796;2022-11-20T01:54:01;0.30;99.90
5901;DHT22;2976;49.764;9.796;2022-11-20T01:56:31;0.30;99.90
5901;DHT22;2976;49.764;9.796;2022-11-20T01:58:59;0.30;99.90
5901;DHT22;2976;49.764;9.796;2022-11-20T02:01:26;0.30;99.90
5901;DHT22;2976;49.764;9.796;2022-11-20T02:03:52;0.40;99.90
5901;DHT22;2976;49.764;9.796;2022-11-20T02:06:42;0.40;99.90
5901;DHT22;2976;49.764;9.796;2022-11-20T02:09:09;0.30;99.90
5901;DHT22;2976;49.764;9.796;2022-11-20T02:11:35;0.30;99.90
5901;DHT22;2976;49.764;9.796;2022-11-20T02:14:00;0.40;99.90
5901;DHT22;2976;49.764;9.796;2022-11-20T02:16:30;0.40;99.90
5901;DHT22;2976;49.764;9.796;2022-11-20T02:18:58;0.40;99.90
5901;DHT22;2976;49.764;9.796;2022-11-20T02:26:36;0.40;99.90
5901;DHT22;2976;49.764;9.796;2022-11-20T02:29:03;0.40;99.90
5901;DHT22;2976;49.764;9.796;2022-11-20T02:31:33;0.40;99.90
5901;DHT22;2976;49.764;9.796;2022-11-20T02:33:59;0.40;99.90
5901;DHT22;2976;49.764;9.796;2022-11-20T02:36:26;0.40;99.90
5901;DHT22;2976;49.764;9.796;2022-11-20T02:38:53;0.40;99.90
5901;DHT22;2976;49.764;9.796;2022-11-20T02:41:19;0.40;99.90
5901;DHT22;2976;49.764;9.796;2022-11-20T02:43:45;0.40;99.90
5901;DHT22;2976;49.764;9.796;2022-11-20T02:46:10;0.40;99.90
5901;DHT22;2976;49.764;9.796;2022-11-20T02:48:36;0.40;99.90
5901;DHT22;2976;49.764;9.796;2022-11-20T02:51:02;0.40;99.90
5901;DHT22;2976;49.764;9.796;2022-11-20T02:53:28;0.40;99.90
5901;DHT22;2976;49.764;9.796;2022-11-20T02:55:53;0.40;99.90
5901;DHT22;2976;49.764;9.796;2022-11-20T02:58:19;0.40;99.90
5901;DHT22;2976;49.764;9.796;2022-11-20T03:00:44;0.40;99.90
5901;DHT22;2976;49.764;9.796;2022-11-20T03:03:10;0.40;99.90
5901;DHT22;2976;49.764;9.796;2022-11-20T03:05:35;0.40;99.90
5901;DHT22;2976;49.764;9.796;2022-11-20T03:08:01;0.50;99.90
5901;DHT22;2976;49.764;9.796;2022-11-20T03:10:26;0.40;99.90
5901;DHT22;2976;49.764;9.796;2022-11-20T03:12:55;0.50;99.90
5901;DHT22;2976;49.764;9.796;2022-11-20T03:15:22;0.40;99.90
5901;DHT22;2976;49.764;9.796;2022-11-20T03:17:48;0.40;99.90
5901;DHT22;2976;49.764;9.796;2022-11-20T03:20:13;0.40;99.90
5901;DHT22;2976;49.764;9.796;2022-11-20T03:22:39;0.30;99.90
5901;DHT22;2976;49.764;9.796;2022-11-20T03:25:05;0.30;99.90
5901;DHT22;2976;49.764;9.796;2022-11-20T03:27:34;0.30;99.90
5901;DHT22;2976;49.764;9.796;2022-11-20T03:30:00;0.20;99.90
5901;DHT22;2976;49.764;9.796;2022-11-20T03:32:25;0.30;99.90
5901;DHT22;2976;49.764;9.796;2022-11-20T03:34:51;0.20;99.90
5901;DHT22;2976;49.764;9.796;2022-11-20T03:37:17;0.30;99.90
5901;DHT22;2976;49.764;9.796;2022-11-20T03:39:42;0.30;99.90
5901;DHT22;2976;49.764;9.796;2022-11-20T03:42:08;0.20;99.90
5901;DHT22;2976;49.764;9.796;2022-11-20T03:44:54;0.30;99.90
5901;DHT22;2976;49.764;9.796;2022-11-20T03:47:20;0.20;99.90
5901;DHT22;2976;49.764;9.796;2022-11-20T03:49:45;0.30;99.90
5901;DHT22;2976;49.764;9.796;2022-11-20T03:52:11;0.30;99.90
5901;DHT22;2976;49.764;9.796;2022-11-20T03:54:36;0.30;99.90
5901;DHT22;2976;49.764;9.796;2022-11-20T03:57:02;0.30;99.90
5901;DHT22;2976;49.764;9.796;2022-11-20T03:59:27;0.30;99.90
5901;DHT22;2976;49.764;9.796;2022-11-20T04:01:53;0.20;99.90
5901;DHT22;2976;49.764;9.796;2022-11-20T04:04:18;0.30;99.90
5901;DHT22;2976;49.764;9.796;2022-11-20T04:06:44;0.20;99.90
5901;DHT22;2976;49.764;9.796;2022-11-20T04:09:09;0.20;99.90
5901;DHT22;2976;49.764;9.796;2022-11-20T04:11:37;0.20;99.90
5901;DHT22;2976;49.764;9.796;2022-11-20T04:14:06;0.20;99.90
5901;DHT22;2976;49.764;9.796;2022-11-20T04:16:34;0.20;99.90
5901;DHT22;2976;49.764;9.796;2022-11-20T04:19:02;0.30;99.90
5901;DHT22;2976;49.764;9.796;2022-11-20T04:21:28;0.30;99.90
5901;DHT22;2976;49.764;9.796;2022-11-20T04:23:55;0.20;99.90
5901;DHT22;2976;49.764;9.796;2022-11-20T04:26:23;0.20;99.90
5901;DHT22;2976;49.764;9.796;2022-11-20T04:28:49;0.30;99.90
5901;DHT22;2976;49.764;9.796;2022-11-20T04:31:17;0.20;99.90
5901;DHT22;2976;49.764;9.796;2022-11-20T04:33:44;0.20;99.90
5901;DHT22;2976;49.764;9.796;2022-11-20T04:36:20;0.20;99.90
5901;DHT22;2976;49.764;9.796;2022-11-20T04:38:46;0.20;99.90
5901;DHT22;2976;49.764;9.796;2022-11-20T04:41:17;0.30;99.90
5901;DHT22;2976;49.764;9.796;2022-11-20T04:43:51;0.20;99.90
5901;DHT22;2976;49.764;9.796;2022-11-20T04:46:18;0.30;99.90
5901;DHT22;2976;49.764;9.796;2022-11-20T04:48:43;0.30;99.90
5901;DHT22;2976;49.764;9.796;2022-11-20T04:51:09;0.40;99.90
5901;DHT22;2976;49.764;9.796;2022-11-20T04:53:35;0.40;99.90
5901;DHT22;2976;49.764;9.796;2022-11-20T04:56:02;0.40;99.90
5901;DHT22;2976;49.764;9.796;2022-11-20T04:58:29;0.40;99.90
5901;DHT22;2976;49.764;9.796;2022-11-20T05:01:04;0.40;99.90
5901;DHT22;2976;49.764;9.796;2022-11-20T05:03:30;0.50;99.90
5901;DHT22;2976;49.764;9.796;2022-11-20T05:06:00;0.50;99.90
5901;DHT22;2976;49.764;9.796;2022-11-20T05:08:25;0.60;99.90
5901;DHT22;2976;49.764;9.796;2022-11-20T05:10:51;0.50;99.90
5901;DHT22;2976;49.764;9.796;2022-11-20T05:13:16;0.60;99.90
5901;DHT22;2976;49.764;9.796;2022-11-20T05:15:42;0.60;99.90
5901;DHT22;2976;49.764;9.796;2022-11-20T05:18:07;0.60;99.90
5901;DHT22;2976;49.764;9.796;2022-11-20T05:20:33;0.70;99.90
5901;DHT22;2976;49.764;9.796;2022-11-20T05:22:58;0.70;99.90
5901;DHT22;2976;49.764;9.796;2022-11-20T05:25:24;0.70;99.90
5901;DHT22;2976;49.764;9.796;2022-11-20T05:27:49;0.60;99.90
5901;DHT22;2976;49.764;9.796;2022-11-20T05:30:15;0.70;99.90
5901;DHT22;2976;49.764;9.796;2022-11-20T05:32:41;0.70;99.90
5901;DHT22;2976;49.764;9.796;2022-11-20T05:35:06;0.70;99.90
5901;DHT22;2976;49.764;9.796;2022-11-20T05:37:32;0.70;99.90
5901;DHT22;2976;49.764;9.796;2022-11-20T05:39:58;0.70;99.90
5901;DHT22;2976;49.764;9.796;2022-11-20T05:42:23;0.70;99.90
5901;DHT22;2976;49.764;9.796;2022-11-20T05:45:03;0.70;99.90
5901;DHT22;2976;49.764;9.796;2022-11-20T05:47:32;0.60;99.90
5901;DHT22;2976;49.764;9.796;2022-11-20T05:49:57;0.60;99.90
5901;DHT22;2976;49.764;9.796;2022-11-20T05:52:23;0.60;99.90
5901;DHT22;2976;49.764;9.796;2022-11-20T05:54:48;0.60;99.90
5901;DHT22;2976;49.764;9.796;2022-11-20T05:57:14;0.50;99.90
5901;DHT22;2976;49.764;9.796;2022-11-20T05:59:39;0.60;99.90
5901;DHT22;2976;49.764;9.796;2022-11-20T06:02:05;0.60;99.90
5901;DHT22;2976;49.764;9.796;2022-11-20T06:04:30;0.60;99.90
5901;DHT22;2976;49.764;9.796;2022-11-20T06:06:56;0.60;99.90
5901;DHT22;2976;49.764;9.796;2022-11-20T06:09:21;0.60;99.90
5901;DHT22;2976;49.764;9.796;2022-11-20T06:11:47;0.60;99.90
5901;DHT22;2976;49.764;9.796;2022-11-20T06:14:12;0.60;99.90
5901;DHT22;2976;49.764;9.796;2022-11-20T06:16:38;0.60;99.90
5901;DHT22;2976;49.764;9.796;2022-11-20T06:19:03;0.50;99.90
5901;DHT22;2976;49.764;9.796;2022-11-20T06:21:29;0.50;99.90
5901;DHT22;2976;49.764;9.796;2022-11-20T06:23:55;0.50;99.90
5901;DHT22;2976;49.764;9.796;2022-11-20T06:26:25;0.50;99.90
5901;DHT22;2976;49.764;9.796;2022-11-20T06:28:52;0.50;99.90
5901;DHT22;2976;49.764;9.796;2022-11-20T06:31:21;0.50;99.90
5901;DHT22;2976;49.764;9.796;2022-11-20T06:33:47;0.50;99.90
5901;DHT22;2976;49.764;9.796;2022-11-20T06:36:14;0.50;99.90
5901;DHT22;2976;49.764;9.796;2022-11-20T06:38:40;0.50;99.90
5901;DHT22;2976;49.764;9.796;2022-11-20T06:41:12;0.50;99.90
5901;DHT22;2976;49.764;9.796;2022-11-20T06:43:38;0.50;99.90
5901;DHT22;2976;49.764;9.796;2022-11-20T06:46:04;0.60;99.90
5901;DHT22;2976;49.764;9.796;2022-11-20T06:48:30;0.60;99.90
5901;DHT22;2976;49.764;9.796;2022-11-20T06:50:56;0.60;99.90
5901;DHT22;2976;49.764;9.796;2022-11-20T06:53:23;0.60;99.90
5901;DHT22;2976;49.764;9.796;2022-11-20T06:55:50;0.60;99.90
5901;DHT22;2976;49.764;9.796;2022-11-20T06:58:17;0.50;99.90
5901;DHT22;2976;49.764;9.796;2022-11-20T07:00:43;0.60;99.90
5901;DHT22;2976;49.764;9.796;2022-11-20T07:03:10;0.50;99.90
5901;DHT22;2976;49.764;9.796;2022-11-20T07:05:36;0.50;99.90
5901;DHT22;2976;49.764;9.796;2022-11-20T07:08:04;0.60;99.90
5901;DHT22;2976;49.764;9.796;2022-11-20T07:10:30;0.60;99.90
5901;DHT22;2976;49.764;9.796;2022-11-20T07:12:55;0.70;99.90
5901;DHT22;2976;49.764;9.796;2022-11-20T07:15:22;0.80;99.90
5901;DHT22;2976;49.764;9.796;2022-11-20T07:17:48;0.80;99.90
5901;DHT22;2976;49.764;9.796;2022-11-20T07:20:14;0.90;99.90
5901;DHT22;2976;49.764;9.796;2022-11-20T07:22:40;0.80;99.90
5901;DHT22;2976;49.764;9.796;2022-11-20T07:25:06;0.90;99.90
5901;DHT22;2976;49.764;9.796;2022-11-20T07:27:32;0.90;99.90
5901;DHT22;2976;49.764;9.796;2022-11-20T07:29:58;1.00;99.90
5901;DHT22;2976;49.764;9.796;2022-11-20T07:32:24;1.10;99.90
5901;DHT22;2976;49.764;9.796;2022-11-20T07:34:50;1.00;99.90
5901;DHT22;2976;49.764;9.796;2022-11-20T07:37:16;1.10;99.90
5901;DHT22;2976;49.764;9.796;2022-11-20T07:39:41;1.20;99.90
5901;DHT22;2976;49.764;9.796;2022-11-20T07:42:08;1.10;99.90
5901;DHT22;2976;49.764;9.796;2022-11-20T07:44:34;1.10;99.90
5901;DHT22;2976;49.764;9.796;2022-11-20T07:46:59;1.10;99.90
5901;DHT22;2976;49.764;9.796;2022-11-20T07:49:25;1.00;99.90
5901;DHT22;2976;49.764;9.796;2022-11-20T07:51:51;1.00;99.90
5901;DHT22;2976;49.764;9.796;2022-11-20T07:54:19;1.10;99.90
5901;DHT22;2976;49.764;9.796;2022-11-20T07:56:44;1.10;99.90
5901;DHT22;2976;49.764;9.796;2022-11-20T07:59:10;1.00;99.90
5901;DHT22;2976;49.764;9.796;2022-11-20T08:01:37;1.10;99.90
5901;DHT22;2976;49.764;9.796;2022-11-20T08:04:03;1.10;99.90
5901;DHT22;2976;49.764;9.796;2022-11-20T08:06:28;0.90;99.90
5901;DHT22;2976;49.764;9.796;2022-11-20T08:08:54;0.90;99.90
5901;DHT22;2976;49.764;9.796;2022-11-20T08:11:19;0.80;99.90
5901;DHT22;2976;49.764;9.796;2022-11-20T08:14:03;0.70;99.90
5901;DHT22;2976;49.764;9.796;2022-11-20T08:16:45;0.70;99.90
5901;DHT22;2976;49.764;9.796;2022-11-20T08:19:12;0.70;99.90
5901;DHT22;2976;49.764;9.796;2022-11-20T08:21:38;0.80;99.90
5901;DHT22;2976;49.764;9.796;2022-11-20T08:24:04;0.90;99.90
5901;DHT22;2976;49.764;9.796;2022-11-20T08:26:30;1.00;99.90
5901;DHT22;2976;49.764;9.796;2022-11-20T08:28:56;1.10;99.90
5901;DHT22;2976;49.764;9.796;2022-11-20T08:31:26;1.20;99.90
5901;DHT22;2976;49.764;9.796;2022-11-20T08:33:52;1.10;99.90
5901;DHT22;2976;49.764;9.796;2022-11-20T08:36:20;1.10;99.90
5901;DHT22;2976;49.764;9.796;2022-11-20T08:38:51;1.00;99.90
5901;DHT22;2976;49.764;9.796;2022-11-20T08:41:17;1.10;99.90
5901;DHT22;2976;49.764;9.796;2022-11-20T08:43:55;1.20;99.90
5901;DHT22;2976;49.764;9.796;2022-11-20T08:46:21;1.30;99.90
5901;DHT22;2976;49.764;9.796;2022-11-20T08:48:47;1.30;99.90
5901;DHT22;2976;49.764;9.796;2022-11-20T08:51:13;1.50;99.90
5901;DHT22;2976;49.764;9.796;2022-11-20T08:53:39;1.50;99.90
5901;DHT22;2976;49.764;9.796;2022-11-20T08:56:05;1.60;99.90
5901;DHT22;2976;49.764;9.796;2022-11-20T08:58:31;1.70;99.90
5901;DHT22;2976;49.764;9.796;2022-11-20T09:00:56;1.80;99.90
5901;DHT22;2976;49.764;9.796;2022-11-20T09:03:22;2.00;99.90
5901;DHT22;2976;49.764;9.796;2022-11-20T09:05:48;2.10;99.90
5901;DHT22;2976;49.764;9.796;2022-11-20T09:08:13;2.20;99.90
5901;DHT22;2976;49.764;9.796;2022-11-20T09:10:39;1.90;99.90
5901;DHT22;2976;49.764;9.796;2022-11-20T09:13:07;1.70;99.90
5901;DHT22;2976;49.764;9.796;2022-11-20T09:15:33;1.60;99.90
5901;DHT22;2976;49.764;9.796;2022-11-20T09:18:01;1.60;99.90
5901;DHT22;2976;49.764;9.796;2022-11-20T09:20:28;1.50;99.90
5901;DHT22;2976;49.764;9.796;2022-11-20T09:22:54;1.40;99.90
5901;DHT22;2976;49.764;9.796;2022-11-20T09:25:20;1.30;99.90
5901;DHT22;2976;49.764;9.796;2022-11-20T09:27:46;1.40;99.90
5901;DHT22;2976;49.764;9.796;2022-11-20T09:30:13;1.40;99.90
5901;DHT22;2976;49.764;9.796;2022-11-20T09:32:39;1.40;99.90
5901;DHT22;2976;49.764;9.796;2022-11-20T09:35:05;1.40;99.90
5901;DHT22;2976;49.764;9.796;2022-11-20T09:37:31;1.30;99.90
5901;DHT22;2976;49.764;9.796;2022-11-20T09:39:56;1.20;99.90
5901;DHT22;2976;49.764;9.796;2022-11-20T09:45:23;1.30;99.90
5901;DHT22;2976;49.764;9.796;2022-11-20T09:50:49;1.30;99.90
5901;DHT22;2976;49.764;9.796;2022-11-20T09:55:56;1.30;99.90
5901;DHT22;2976;49.764;9.796;2022-11-20T09:58:28;1.40;99.90
5901;DHT22;2976;49.764;9.796;2022-11-20T10:00:58;1.40;99.90
5901;DHT22;2976;49.764;9.796;2022-11-20T10:07:13;1.60;99.90
5901;DHT22;2976;49.764;9.796;2022-11-20T10:09:47;1.70;99.90
5901;DHT22;2976;49.764;9.796;2022-11-20T10:17:44;2.10;99.90
5901;DHT22;2976;49.764;9.796;2022-11-20T10:25:57;2.50;99.90
5901;DHT22;2976;49.764;9.796;2022-11-20T10:31:29;3.00;99.90
5901;DHT22;2976;49.764;9.796;2022-11-20T10:34:00;3.10;99.90
5901;DHT22;2976;49.764;9.796;2022-11-20T10:36:28;3.00;99.90
5901;DHT22;2976;49.764;9.796;2022-11-20T10:39:03;3.10;99.90
5901;DHT22;2976;49.764;9.796;2022-11-20T10:41:34;3.20;99.90
5901;DHT22;2976;49.764;9.796;2022-11-20T10:44:17;2.90;99.90
5901;DHT22;2976;49.764;9.796;2022-11-20T10:47:03;2.80;99.90
5901;DHT22;2976;49.764;9.796;2022-11-20T10:49:30;2.70;99.90
5901;DHT22;2976;49.764;9.796;2022-11-20T10:52:17;2.70;99.90
5901;DHT22;2976;49.764;9.796;2022-11-20T10:55:03;2.80;99.90
5901;DHT22;2976;49.764;9.796;2022-11-20T10:57:40;2.80;99.90
5901;DHT22;2976;49.764;9.796;2022-11-20T11:00:11;2.90;99.90
5901;DHT22;2976;49.764;9.796;2022-11-20T11:02:50;2.90;99.90
5901;DHT22;2976;49.764;9.796;2022-11-20T11:07:57;3.10;99.90
5901;DHT22;2976;49.764;9.796;2022-11-20T11:10:32;3.10;99.90
5901;DHT22;2976;49.764;9.796;2022-11-20T11:13:01;3.10;99.90
5901;DHT22;2976;49.764;9.796;2022-11-20T11:15:30;3.00;99.90
5901;DHT22;2976;49.764;9.796;2022-11-20T11:18:01;3.00;99.90
5901;DHT22;2976;49.764;9.796;2022-11-20T11:20:28;3.00;99.90
5901;DHT22;2976;49.764;9.796;2022-11-20T11:22:56;3.00;99.90
5901;DHT22;2976;49.764;9.796;2022-11-20T11:25:32;3.00;99.90
5901;DHT22;2976;49.764;9.796;2022-11-20T11:30:44;2.90;99.90
5901;DHT22;2976;49.764;9.796;2022-11-20T11:33:22;2.90;99.90
5901;DHT22;2976;49.764;9.796;2022-11-20T11:35:55;2.90;99.90
5901;DHT22;2976;49.764;9.796;2022-11-20T11:38:41;2.90;99.90
5901;DHT22;2976;49.764;9.796;2022-11-20T11:41:15;2.80;99.90
5901;DHT22;2976;49.764;9.796;2022-11-20T11:43:51;2.80;99.90
5901;DHT22;2976;49.764;9.796;2022-11-20T11:46:36;2.70;99.90
5901;DHT22;2976;49.764;9.796;2022-11-20T11:56:51;2.60;99.90
5901;DHT22;2976;49.764;9.796;2022-11-20T11:59:38;2.60;99.90
5901;DHT22;2976;49.764;9.796;2022-11-20T12:04:59;2.60;99.90
5901;DHT22;2976;49.764;9.796;2022-11-20T12:13:11;2.70;99.90
5901;DHT22;2976;49.764;9.796;2022-11-20T12:15:44;2.70;99.90
5901;DHT22;2976;49.764;9.796;2022-11-20T12:18:15;2.80;99.90
5901;DHT22;2976;49.764;9.796;2022-11-20T12:20:51;2.80;99.90
5901;DHT22;2976;49.764;9.796;2022-11-20T12:23:33;2.80;99.90
5901;DHT22;2976;49.764;9.796;2022-11-20T12:26:05;2.80;99.90
5901;DHT22;2976;49.764;9.796;2022-11-20T12:31:37;2.80;99.90
5901;DHT22;2976;49.764;9.796;2022-11-20T12:34:24;2.80;99.90
5901;DHT22;2976;49.764;9.796;2022-11-20T12:37:16;2.80;99.90
5901;DHT22;2976;49.764;9.796;2022-11-20T12:39:48;2.80;99.90
5901;DHT22;2976;49.764;9.796;2022-11-20T12:45:42;2.80;99.90
5901;DHT22;2976;49.764;9.796;2022-11-20T12:54:17;2.90;99.90
5901;DHT22;2976;49.764;9.796;2022-11-20T12:57:16;2.90;99.90
5901;DHT22;2976;49.764;9.796;2022-11-20T13:06:02;2.90;99.90
5901;DHT22;2976;49.764;9.796;2022-11-20T13:08:22;2.90;99.90
5901;DHT22;2976;49.764;9.796;2022-11-20T13:17:01;3.00;99.90
5901;DHT22;2976;49.764;9.796;2022-11-20T13:19:29;3.10;99.90
5901;DHT22;2976;49.764;9.796;2022-11-20T13:21:55;3.10;99.90
5901;DHT22;2976;49.764;9.796;2022-11-20T13:29:36;3.20;99.90
5901;DHT22;2976;49.764;9.796;2022-11-20T13:34:39;3.30;99.90
5901;DHT22;2976;49.764;9.796;2022-11-20T13:37:05;3.40;99.90
5901;DHT22;2976;49.764;9.796;2022-11-20T13:39:32;3.60;99.90
5901;DHT22;2976;49.764;9.796;2022-11-20T13:42:03;3.70;99.90
5901;DHT22;2976;49.764;9.796;2022-11-20T13:44:54;3.70;99.90
5901;DHT22;2976;49.764;9.796;2022-11-20T13:47:25;3.60;99.90
5901;DHT22;2976;49.764;9.796;2022-11-20T13:49:52;3.60;99.90
5901;DHT22;2976;49.764;9.796;2022-11-20T13:55:31;3.50;99.90
5901;DHT22;2976;49.764;9.796;2022-11-20T14:03:44;3.70;99.90
5901;DHT22;2976;49.764;9.796;2022-11-20T14:06:27;3.70;99.90
5901;DHT22;2976;49.764;9.796;2022-11-20T14:08:54;3.60;99.90
5901;DHT22;2976;49.764;9.796;2022-11-20T14:11:21;3.60;99.90
5901;DHT22;2976;49.764;9.796;2022-11-20T14:14:10;3.50;99.90
5901;DHT22;2976;49.764;9.796;2022-11-20T14:16:38;3.50;99.90
5901;DHT22;2976;49.764;9.796;2022-11-20T14:21:48;3.50;99.90
5901;DHT22;2976;49.764;9.796;2022-11-20T14:24:19;3.50;99.90
5901;DHT22;2976;49.764;9.796;2022-11-20T14:26:45;3.50;99.90
5901;DHT22;2976;49.764;9.796;2022-11-20T14:29:16;3.50;99.90
5901;DHT22;2976;49.764;9.796;2022-11-20T14:31:43;3.50;99.90
5901;DHT22;2976;49.764;9.796;2022-11-20T14:34:18;3.50;99.90
5901;DHT22;2976;49.764;9.796;2022-11-20T14:36:44;3.50;99.90
5901;DHT22;2976;49.764;9.796;2022-11-20T14:39:28;3.50;99.90
5901;DHT22;2976;49.764;9.796;2022-11-20T14:41:54;3.50;99.90
5901;DHT22;2976;49.764;9.796;2022-11-20T14:44:23;3.50;99.90
5901;DHT22;2976;49.764;9.796;2022-11-20T14:46:51;3.60;99.90
5901;DHT22;2976;49.764;9.796;2022-11-20T14:49:18;3.60;99.90
5901;DHT22;2976;49.764;9.796;2022-11-20T14:51:43;3.50;99.90
5901;DHT22;2976;49.764;9.796;2022-11-20T14:54:20;3.50;99.90
5901;DHT22;2976;49.764;9.796;2022-11-20T14:57:24;3.50;99.90
5901;DHT22;2976;49.764;9.796;2022-11-20T14:59:50;3.40;99.90
5901;DHT22;2976;49.764;9.796;2022-11-20T15:02:16;3.40;99.90
5901;DHT22;2976;49.764;9.796;2022-11-20T15:04:57;3.40;99.90
5901;DHT22;2976;49.764;9.796;2022-11-20T15:07:32;3.50;99.90
5901;DHT22;2976;49.764;9.796;2022-11-20T15:10:05;3.40;99.90
5901;DHT22;2976;49.764;9.796;2022-11-20T15:12:36;3.40;99.90
5901;DHT22;2976;49.764;9.796;2022-11-20T15:15:04;3.40;99.90
5901;DHT22;2976;49.764;9.796;2022-11-20T15:17:31;3.40;99.90
5901;DHT22;2976;49.764;9.796;2022-11-20T15:19:58;3.30;99.90
5901;DHT22;2976;49.764;9.796;2022-11-20T15:22:25;3.30;99.90
5901;DHT22;2976;49.764;9.796;2022-11-20T15:24:50;3.20;99.90
5901;DHT22;2976;49.764;9.796;2022-11-20T15:27:16;3.20;99.90
5901;DHT22;2976;49.764;9.796;2022-11-20T15:29:42;3.20;99.90
5901;DHT22;2976;49.764;9.796;2022-11-20T15:32:08;3.20;99.90
5901;DHT22;2976;49.764;9.796;2022-11-20T15:34:34;3.10;99.90
5901;DHT22;2976;49.764;9.796;2022-11-20T15:36:59;3.10;99.90
5901;DHT22;2976;49.764;9.796;2022-11-20T15:39:25;3.10;99.90
5901;DHT22;2976;49.764;9.796;2022-11-20T15:41:50;3.10;99.90
5901;DHT22;2976;49.764;9.796;2022-11-20T15:44:16;3.10;99.90
5901;DHT22;2976;49.764;9.796;2022-11-20T15:46:42;3.10;99.90
5901;DHT22;2976;49.764;9.796;2022-11-20T15:49:13;3.00;99.90
5901;DHT22;2976;49.764;9.796;2022-11-20T15:51:44;3.00;99.90
5901;DHT22;2976;49.764;9.796;2022-11-20T15:54:17;2.90;99.90
5901;DHT22;2976;49.764;9.796;2022-11-20T15:56:45;3.00;99.90
5901;DHT22;2976;49.764;9.796;2022-11-20T15:59:11;2.90;99.90
5901;DHT22;2976;49.764;9.796;2022-11-20T16:01:37;2.90;99.90
5901;DHT22;2976;49.764;9.796;2022-11-20T16:04:07;3.00;99.90
5901;DHT22;2976;49.764;9.796;2022-11-20T16:06:34;3.00;99.90
5901;DHT22;2976;49.764;9.796;2022-11-20T16:08:59;3.00;99.90
5901;DHT22;2976;49.764;9.796;2022-11-20T16:11:25;3.00;99.90
5901;DHT22;2976;49.764;9.796;2022-11-20T16:13:50;3.00;99.90
5901;DHT22;2976;49.764;9.796;2022-11-20T16:16:36;3.00;99.90
5901;DHT22;2976;49.764;9.796;2022-11-20T16:19:03;3.00;99.90
5901;DHT22;2976;49.764;9.796;2022-11-20T16:21:29;3.00;99.90
5901;DHT22;2976;49.764;9.796;2022-11-20T16:23:59;3.00;99.90
5901;DHT22;2976;49.764;9.796;2022-11-20T16:26:25;2.90;99.90
5901;DHT22;2976;49.764;9.796;2022-11-20T16:28:51;2.90;99.90
5901;DHT22;2976;49.764;9.796;2022-11-20T16:31:18;2.90;99.90
5901;DHT22;2976;49.764;9.796;2022-11-20T16:33:49;2.90;99.90
5901;DHT22;2976;49.764;9.796;2022-11-20T16:36:16;2.80;99.90
5901;DHT22;2976;49.764;9.796;2022-11-20T16:38:41;2.80;99.90
5901;DHT22;2976;49.764;9.796;2022-11-20T16:41:08;2.80;99.90
5901;DHT22;2976;49.764;9.796;2022-11-20T16:43:50;2.70;99.90
5901;DHT22;2976;49.764;9.796;2022-11-20T16:46:18;2.60;99.90
5901;DHT22;2976;49.764;9.796;2022-11-20T16:48:44;2.60;99.90
5901;DHT22;2976;49.764;9.796;2022-11-20T16:51:11;2.50;99.90
5901;DHT22;2976;49.764;9.796;2022-11-20T16:53:37;2.50;99.90
5901;DHT22;2976;49.764;9.796;2022-11-20T16:56:10;2.50;99.90
5901;DHT22;2976;49.764;9.796;2022-11-20T16:58:36;2.50;99.90
5901;DHT22;2976;49.764;9.796;2022-11-20T17:01:06;2.50;99.90
5901;DHT22;2976;49.764;9.796;2022-11-20T17:03:31;2.60;99.90
5901;DHT22;2976;49.764;9.796;2022-11-20T17:05:57;2.60;99.90
5901;DHT22;2976;49.764;9.796;2022-11-20T17:08:22;2.70;99.90
5901;DHT22;2976;49.764;9.796;2022-11-20T17:10:48;2.70;99.90
5901;DHT22;2976;49.764;9.796;2022-11-20T17:13:13;2.70;99.90
5901;DHT22;2976;49.764;9.796;2022-11-20T17:15:39;2.90;99.90
5901;DHT22;2976;49.764;9.796;2022-11-20T17:18:04;3.10;99.90
5901;DHT22;2976;49.764;9.796;2022-11-20T17:20:30;3.10;99.90
5901;DHT22;2976;49.764;9.796;2022-11-20T17:22:56;3.20;99.90
5901;DHT22;2976;49.764;9.796;2022-11-20T17:25:22;3.30;99.90
5901;DHT22;2976;49.764;9.796;2022-11-20T17:27:47;3.40;99.90
5901;DHT22;2976;49.764;9.796;2022-11-20T17:30:13;3.50;99.90
5901;DHT22;2976;49.764;9.796;2022-11-20T17:32:39;3.60;99.90
5901;DHT22;2976;49.764;9.796;2022-11-20T17:35:09;3.60;99.90
5901;DHT22;2976;49.764;9.796;2022-11-20T17:37:35;3.70;99.90
5901;DHT22;2976;49.764;9.796;2022-11-20T17:40:00;3.70;99.90
5901;DHT22;2976;49.764;9.796;2022-11-20T17:42:26;3.70;99.90
5901;DHT22;2976;49.764;9.796;2022-11-20T17:44:53;3.70;99.90
5901;DHT22;2976;49.764;9.796;2022-11-20T17:47:19;3.70;99.90
5901;DHT22;2976;49.764;9.796;2022-11-20T17:49:45;3.70;99.90
5901;DHT22;2976;49.764;9.796;2022-11-20T17:52:10;3.80;99.90
5901;DHT22;2976;49.764;9.796;2022-11-20T17:54:36;3.80;99.90
5901;DHT22;2976;49.764;9.796;2022-11-20T17:57:01;3.80;99.90
5901;DHT22;2976;49.764;9.796;2022-11-20T17:59:46;3.80;99.90
5901;DHT22;2976;49.764;9.796;2022-11-20T18:02:11;3.90;99.90
5901;DHT22;2976;49.764;9.796;2022-11-20T18:04:37;3.90;99.90
5901;DHT22;2976;49.764;9.796;2022-11-20T18:07:02;3.80;99.90
5901;DHT22;2976;49.764;9.796;2022-11-20T18:09:28;3.90;99.90